sensor_id;sensor_type;location;lat;lon;timestamp;P1;durP1;ratioP1;P2;durP2;ratioP2
35977;SDS011;22056;0.000;0.000;2023-03-02T00:00:41;3.00;;;0.93;;
35977;SDS011;22056;0.000;0.000;2023-03-02T00:03:08;1.92;;;0.90;;
35977;SDS011;22056;0.000;0.000;2023-03-02T00:05:35;2.08;;;0.90;;
35977;SDS011;22056;0.000;0.000;2023-03-02T00:08:02;2.17;;;0.80;;
35977;SDS011;22056;0.000;0.000;2023-03-02T00:10:28;1.85;;;0.70;;
35977;SDS011;22056;0.000;0.000;2023-03-02T00:12:54;3.80;;;0.70;;
35977;SDS011;22056;0.000;0.000;2023-03-02T00:15:21;1.45;;;0.93;;
35977;SDS011;22056;0.000;0.000;2023-03-02T00:17:47;1.00;;;0.70;;
35977;SDS011;22056;0.000;0.000;2023-03-02T00:20:13;2.35;;;0.95;;
35977;SDS011;22056;0.000;0.000;2023-03-02T00:22:43;1.25;;;0.70;;
35977;SDS011;22056;0.000;0.000;2023-03-02T00:25:10;2.40;;;0.70;;
35977;SDS011;22056;0.000;0.000;2023-03-02T00:27:36;1.23;;;0.90;;
35977;SDS011;22056;0.000;0.000;2023-03-02T00:30:03;1.40;;;0.63;;
35977;SDS011;22056;0.000;0.000;2023-03-02T00:32:29;1.30;;;0.80;;
35977;SDS011;22056;0.000;0.000;2023-03-02T00:34:55;1.27;;;0.60;;
35977;SDS011;22056;0.000;0.000;2023-03-02T00:37:22;2.03;;;0.68;;
35977;SDS011;22056;0.000;0.000;2023-03-02T00:39:52;1.35;;;0.60;;
35977;SDS011;22056;0.000;0.000;2023-03-02T00:42:19;3.42;;;0.80;;
35977;SDS011;22056;0.000;0.000;2023-03-02T00:44:45;1.85;;;0.70;;
35977;SDS011;22056;0.000;0.000;2023-03-02T00:47:12;1.40;;;0.73;;
35977;SDS011;22056;0.000;0.000;2023-03-02T00:49:38;1.73;;;0.73;;
35977;SDS011;22056;0.000;0.000;2023-03-02T00:52:04;1.00;;;0.55;;
35977;SDS011;22056;0.000;0.000;2023-03-02T00:54:30;1.45;;;0.70;;
35977;SDS011;22056;0.000;0.000;2023-03-02T00:56:56;1.80;;;0.82;;
35977;SDS011;22056;0.000;0.000;2023-03-02T00:59:23;1.10;;;0.63;;
35977;SDS011;22056;0.000;0.000;2023-03-02T01:01:55;1.83;;;0.82;;
35977;SDS011;22056;0.000;0.000;2023-03-02T01:04:26;2.25;;;0.85;;
35977;SDS011;22056;0.000;0.000;2023-03-02T01:09:21;1.35;;;0.70;;
35977;SDS011;22056;0.000;0.000;2023-03-02T01:11:47;1.33;;;0.80;;
35977;SDS011;22056;0.000;0.000;2023-03-02T01:14:13;1.05;;;0.70;;
35977;SDS011;22056;0.000;0.000;2023-03-02T01:16:39;0.60;;;0.57;;
35977;SDS011;22056;0.000;0.000;2023-03-02T01:19:05;1.15;;;0.70;;
35977;SDS011;22056;0.000;0.000;2023-03-02T01:21:32;0.90;;;0.60;;
35977;SDS011;22056;0.000;0.000;2023-03-02T01:23:58;3.08;;;0.75;;
35977;SDS011;22056;0.000;0.000;2023-03-02T01:26:24;1.67;;;0.70;;
35977;SDS011;22056;0.000;0.000;2023-03-02T01:28:50;2.35;;;0.93;;
35977;SDS011;22056;0.000;0.000;2023-03-02T01:31:20;1.85;;;0.60;;
35977;SDS011;22056;0.000;0.000;2023-03-02T01:33:47;1.02;;;0.50;;
35977;SDS011;22056;0.000;0.000;2023-03-02T01:36:13;0.80;;;0.70;;
35977;SDS011;22056;0.000;0.000;2023-03-02T01:38:39;1.27;;;0.60;;
35977;SDS011;22056;0.000;0.000;2023-03-02T01:41:05;1.23;;;0.70;;
35977;SDS011;22056;0.000;0.000;2023-03-02T01:43:31;1.77;;;0.60;;
35977;SDS011;22056;0.000;0.000;2023-03-02T01:46:09;3.20;;;0.70;;
35977;SDS011;22056;0.000;0.000;2023-03-02T01:48:44;0.90;;;0.70;;
35977;SDS011;22056;0.000;0.000;2023-03-02T01:51:13;0.70;;;0.70;;
35977;SDS011;22056;0.000;0.000;2023-03-02T01:53:40;1.27;;;0.55;;
35977;SDS011;22056;0.000;0.000;2023-03-02T01:56:12;1.98;;;0.77;;
35977;SDS011;22056;0.000;0.000;2023-03-02T01:58:40;1.38;;;0.70;;
35977;SDS011;22056;0.000;0.000;2023-03-02T02:01:06;2.72;;;0.60;;
35977;SDS011;22056;0.000;0.000;2023-03-02T02:03:40;1.77;;;0.68;;
35977;SDS011;22056;0.000;0.000;2023-03-02T02:08:51;1.10;;;0.60;;
35977;SDS011;22056;0.000;0.000;2023-03-02T02:11:18;1.23;;;0.63;;
35977;SDS011;22056;0.000;0.000;2023-03-02T02:13:44;0.60;;;0.50;;
35977;SDS011;22056;0.000;0.000;2023-03-02T02:16:11;0.88;;;0.60;;
35977;SDS011;22056;0.000;0.000;2023-03-02T02:18:38;0.80;;;0.65;;
35977;SDS011;22056;0.000;0.000;2023-03-02T02:21:05;0.70;;;0.52;;
35977;SDS011;22056;0.000;0.000;2023-03-02T02:24:15;1.33;;;0.60;;
35977;SDS011;22056;0.000;0.000;2023-03-02T02:26:31;0.90;;;0.60;;
35977;SDS011;22056;0.000;0.000;2023-03-02T02:29:33;0.77;;;0.75;;
35977;SDS011;22056;0.000;0.000;2023-03-02T02:31:52;1.27;;;0.60;;
35977;SDS011;22056;0.000;0.000;2023-03-02T02:34:24;0.43;;;0.40;;
35977;SDS011;22056;0.000;0.000;2023-03-02T02:36:54;1.00;;;0.55;;
35977;SDS011;22056;0.000;0.000;2023-03-02T02:39:22;0.82;;;0.50;;
35977;SDS011;22056;0.000;0.000;2023-03-02T02:41:53;0.60;;;0.60;;
35977;SDS011;22056;0.000;0.000;2023-03-02T02:44:20;1.00;;;0.60;;
35977;SDS011;22056;0.000;0.000;2023-03-02T02:46:46;0.80;;;0.60;;
35977;SDS011;22056;0.000;0.000;2023-03-02T02:49:31;0.80;;;0.40;;
35977;SDS011;22056;0.000;0.000;2023-03-02T02:51:59;1.30;;;0.60;;
35977;SDS011;22056;0.000;0.000;2023-03-02T02:54:26;1.30;;;0.70;;
35977;SDS011;22056;0.000;0.000;2023-03-02T02:56:53;0.63;;;0.50;;
35977;SDS011;22056;0.000;0.000;2023-03-02T02:59:24;2.25;;;0.70;;
35977;SDS011;22056;0.000;0.000;2023-03-02T03:01:53;1.60;;;0.60;;
35977;SDS011;22056;0.000;0.000;2023-03-02T03:04:21;0.50;;;0.40;;
35977;SDS011;22056;0.000;0.000;2023-03-02T03:06:52;1.30;;;0.60;;
35977;SDS011;22056;0.000;0.000;2023-03-02T03:09:19;0.45;;;0.45;;
35977;SDS011;22056;0.000;0.000;2023-03-02T03:11:51;1.52;;;0.70;;
35977;SDS011;22056;0.000;0.000;2023-03-02T03:14:20;1.33;;;0.68;;
35977;SDS011;22056;0.000;0.000;2023-03-02T03:16:47;1.27;;;0.57;;
35977;SDS011;22056;0.000;0.000;2023-03-02T03:21:43;0.70;;;0.63;;
35977;SDS011;22056;0.000;0.000;2023-03-02T03:24:09;0.77;;;0.60;;
35977;SDS011;22056;0.000;0.000;2023-03-02T03:26:36;0.80;;;0.57;;
35977;SDS011;22056;0.000;0.000;2023-03-02T03:29:02;0.88;;;0.50;;
35977;SDS011;22056;0.000;0.000;2023-03-02T03:31:28;0.60;;;0.55;;
35977;SDS011;22056;0.000;0.000;2023-03-02T03:33:55;0.70;;;0.40;;
35977;SDS011;22056;0.000;0.000;2023-03-02T03:36:24;1.33;;;0.60;;
35977;SDS011;22056;0.000;0.000;2023-03-02T03:38:51;0.70;;;0.50;;
35977;SDS011;22056;0.000;0.000;2023-03-02T03:41:17;1.00;;;0.60;;
35977;SDS011;22056;0.000;0.000;2023-03-02T03:43:43;0.80;;;0.60;;
35977;SDS011;22056;0.000;0.000;2023-03-02T03:46:09;0.68;;;0.40;;
35977;SDS011;22056;0.000;0.000;2023-03-02T03:48:35;0.60;;;0.50;;
35977;SDS011;22056;0.000;0.000;2023-03-02T03:51:01;0.57;;;0.50;;
35977;SDS011;22056;0.000;0.000;2023-03-02T03:53:28;0.60;;;0.50;;
35977;SDS011;22056;0.000;0.000;2023-03-02T03:55:54;0.40;;;0.40;;
35977;SDS011;22056;0.000;0.000;2023-03-02T03:58:21;1.00;;;0.50;;
35977;SDS011;22056;0.000;0.000;2023-03-02T04:00:48;0.82;;;0.55;;
35977;SDS011;22056;0.000;0.000;2023-03-02T04:03:14;0.73;;;0.60;;
35977;SDS011;22056;0.000;0.000;2023-03-02T04:05:40;0.93;;;0.60;;
35977;SDS011;22056;0.000;0.000;2023-03-02T04:08:07;0.57;;;0.47;;
35977;SDS011;22056;0.000;0.000;2023-03-02T04:10:34;0.50;;;0.47;;
35977;SDS011;22056;0.000;0.000;2023-03-02T04:13:00;0.90;;;0.57;;
35977;SDS011;22056;0.000;0.000;2023-03-02T04:15:26;0.63;;;0.47;;
35977;SDS011;22056;0.000;0.000;2023-03-02T04:17:52;0.50;;;0.47;;
35977;SDS011;22056;0.000;0.000;2023-03-02T04:20:19;0.45;;;0.43;;
35977;SDS011;22056;0.000;0.000;2023-03-02T04:22:46;0.65;;;0.50;;
35977;SDS011;22056;0.000;0.000;2023-03-02T04:25:14;0.45;;;0.45;;
35977;SDS011;22056;0.000;0.000;2023-03-02T04:27:44;0.63;;;0.52;;
35977;SDS011;22056;0.000;0.000;2023-03-02T04:30:11;0.43;;;0.40;;
35977;SDS011;22056;0.000;0.000;2023-03-02T04:32:37;1.00;;;0.50;;
35977;SDS011;22056;0.000;0.000;2023-03-02T04:35:03;0.47;;;0.40;;
35977;SDS011;22056;0.000;0.000;2023-03-02T04:37:29;0.70;;;0.45;;
35977;SDS011;22056;0.000;0.000;2023-03-02T04:39:56;0.40;;;0.40;;
35977;SDS011;22056;0.000;0.000;2023-03-02T04:42:22;0.38;;;0.38;;
35977;SDS011;22056;0.000;0.000;2023-03-02T04:44:48;0.70;;;0.50;;
35977;SDS011;22056;0.000;0.000;2023-03-02T04:47:14;0.60;;;0.60;;
35977;SDS011;22056;0.000;0.000;2023-03-02T04:49:40;0.60;;;0.40;;
35977;SDS011;22056;0.000;0.000;2023-03-02T04:52:06;0.40;;;0.40;;
35977;SDS011;22056;0.000;0.000;2023-03-02T04:54:33;0.57;;;0.50;;
35977;SDS011;22056;0.000;0.000;2023-03-02T04:56:59;0.60;;;0.50;;
35977;SDS011;22056;0.000;0.000;2023-03-02T04:59:26;0.50;;;0.50;;
35977;SDS011;22056;0.000;0.000;2023-03-02T05:04:26;0.60;;;0.50;;
35977;SDS011;22056;0.000;0.000;2023-03-02T05:06:52;0.93;;;0.40;;
35977;SDS011;22056;0.000;0.000;2023-03-02T05:09:18;0.65;;;0.40;;
35977;SDS011;22056;0.000;0.000;2023-03-02T05:11:51;0.65;;;0.43;;
35977;SDS011;22056;0.000;0.000;2023-03-02T05:14:17;0.50;;;0.50;;
35977;SDS011;22056;0.000;0.000;2023-03-02T05:16:43;0.95;;;0.50;;
35977;SDS011;22056;0.000;0.000;2023-03-02T05:19:09;0.75;;;0.57;;
35977;SDS011;22056;0.000;0.000;2023-03-02T05:21:36;2.85;;;0.60;;
35977;SDS011;22056;0.000;0.000;2023-03-02T05:24:03;1.58;;;0.50;;
35977;SDS011;22056;0.000;0.000;2023-03-02T05:26:29;1.73;;;0.50;;
35977;SDS011;22056;0.000;0.000;2023-03-02T05:28:55;1.75;;;0.52;;
35977;SDS011;22056;0.000;0.000;2023-03-02T05:31:29;1.40;;;0.60;;
35977;SDS011;22056;0.000;0.000;2023-03-02T05:33:56;2.22;;;0.60;;
35977;SDS011;22056;0.000;0.000;2023-03-02T05:36:22;2.08;;;0.73;;
35977;SDS011;22056;0.000;0.000;2023-03-02T05:38:49;1.13;;;0.60;;
35977;SDS011;22056;0.000;0.000;2023-03-02T05:41:15;2.25;;;0.60;;
35977;SDS011;22056;0.000;0.000;2023-03-02T05:43:42;0.82;;;0.60;;
35977;SDS011;22056;0.000;0.000;2023-03-02T05:46:08;2.28;;;0.63;;
35977;SDS011;22056;0.000;0.000;2023-03-02T05:48:34;2.03;;;0.60;;
35977;SDS011;22056;0.000;0.000;2023-03-02T05:51:00;1.08;;;0.40;;
35977;SDS011;22056;0.000;0.000;2023-03-02T05:53:26;2.17;;;0.60;;
35977;SDS011;22056;0.000;0.000;2023-03-02T05:55:53;1.67;;;0.60;;
35977;SDS011;22056;0.000;0.000;2023-03-02T05:58:19;0.80;;;0.50;;
35977;SDS011;22056;0.000;0.000;2023-03-02T06:00:46;0.90;;;0.50;;
35977;SDS011;22056;0.000;0.000;2023-03-02T06:03:12;0.80;;;0.70;;
35977;SDS011;22056;0.000;0.000;2023-03-02T06:05:40;1.30;;;0.70;;
35977;SDS011;22056;0.000;0.000;2023-03-02T06:08:06;0.82;;;0.60;;
35977;SDS011;22056;0.000;0.000;2023-03-02T06:10:32;0.80;;;0.60;;
35977;SDS011;22056;0.000;0.000;2023-03-02T06:12:59;1.60;;;0.57;;
35977;SDS011;22056;0.000;0.000;2023-03-02T06:15:25;0.90;;;0.80;;
35977;SDS011;22056;0.000;0.000;2023-03-02T06:17:55;3.03;;;0.68;;
35977;SDS011;22056;0.000;0.000;2023-03-02T06:20:21;3.50;;;0.70;;
35977;SDS011;22056;0.000;0.000;2023-03-02T06:22:47;1.55;;;0.50;;
35977;SDS011;22056;0.000;0.000;2023-03-02T06:25:15;3.33;;;0.80;;
35977;SDS011;22056;0.000;0.000;2023-03-02T06:27:41;3.42;;;0.63;;
35977;SDS011;22056;0.000;0.000;2023-03-02T06:30:08;1.42;;;0.60;;
35977;SDS011;22056;0.000;0.000;2023-03-02T06:32:36;1.20;;;0.60;;
35977;SDS011;22056;0.000;0.000;2023-03-02T06:35:02;2.97;;;0.80;;
35977;SDS011;22056;0.000;0.000;2023-03-02T06:37:29;2.35;;;0.60;;
35977;SDS011;22056;0.000;0.000;2023-03-02T06:39:56;2.08;;;0.70;;
35977;SDS011;22056;0.000;0.000;2023-03-02T06:42:22;2.33;;;0.70;;
35977;SDS011;22056;0.000;0.000;2023-03-02T06:44:49;0.70;;;0.57;;
35977;SDS011;22056;0.000;0.000;2023-03-02T06:47:16;2.80;;;0.73;;
35977;SDS011;22056;0.000;0.000;2023-03-02T06:49:43;2.75;;;0.60;;
35977;SDS011;22056;0.000;0.000;2023-03-02T06:52:09;1.35;;;0.60;;
35977;SDS011;22056;0.000;0.000;2023-03-02T06:54:37;2.97;;;0.63;;
35977;SDS011;22056;0.000;0.000;2023-03-02T06:57:03;3.08;;;0.88;;
35977;SDS011;22056;0.000;0.000;2023-03-02T06:59:29;1.63;;;0.63;;
35977;SDS011;22056;0.000;0.000;2023-03-02T07:01:56;2.33;;;0.88;;
35977;SDS011;22056;0.000;0.000;2023-03-02T07:04:22;2.65;;;0.63;;
35977;SDS011;22056;0.000;0.000;2023-03-02T07:06:49;1.77;;;0.93;;
35977;SDS011;22056;0.000;0.000;2023-03-02T07:09:15;2.55;;;0.70;;
35977;SDS011;22056;0.000;0.000;2023-03-02T07:11:41;3.47;;;0.88;;
35977;SDS011;22056;0.000;0.000;2023-03-02T07:14:07;1.52;;;0.77;;
35977;SDS011;22056;0.000;0.000;2023-03-02T07:16:34;2.63;;;0.70;;
35977;SDS011;22056;0.000;0.000;2023-03-02T07:19:00;2.65;;;0.90;;
35977;SDS011;22056;0.000;0.000;2023-03-02T07:21:26;3.33;;;0.75;;
35977;SDS011;22056;0.000;0.000;2023-03-02T07:23:52;1.10;;;0.60;;
35977;SDS011;22056;0.000;0.000;2023-03-02T07:26:18;2.53;;;0.90;;
35977;SDS011;22056;0.000;0.000;2023-03-02T07:28:45;1.48;;;0.82;;
35977;SDS011;22056;0.000;0.000;2023-03-02T07:31:11;2.88;;;0.70;;
35977;SDS011;22056;0.000;0.000;2023-03-02T07:33:38;2.58;;;1.00;;
35977;SDS011;22056;0.000;0.000;2023-03-02T07:36:05;1.45;;;0.60;;
35977;SDS011;22056;0.000;0.000;2023-03-02T07:38:31;2.33;;;1.00;;
35977;SDS011;22056;0.000;0.000;2023-03-02T07:40:57;2.10;;;1.00;;
35977;SDS011;22056;0.000;0.000;2023-03-02T07:43:23;1.25;;;0.80;;
35977;SDS011;22056;0.000;0.000;2023-03-02T07:45:50;4.38;;;0.80;;
35977;SDS011;22056;0.000;0.000;2023-03-02T07:48:17;4.55;;;0.80;;
35977;SDS011;22056;0.000;0.000;2023-03-02T07:50:44;1.80;;;0.73;;
35977;SDS011;22056;0.000;0.000;2023-03-02T07:53:10;2.30;;;0.68;;
35977;SDS011;22056;0.000;0.000;2023-03-02T07:55:40;2.38;;;0.70;;
35977;SDS011;22056;0.000;0.000;2023-03-02T07:58:06;3.60;;;0.95;;
35977;SDS011;22056;0.000;0.000;2023-03-02T08:00:32;2.05;;;0.73;;
35977;SDS011;22056;0.000;0.000;2023-03-02T08:03:00;1.85;;;0.90;;
35977;SDS011;22056;0.000;0.000;2023-03-02T08:05:26;2.95;;;0.88;;
35977;SDS011;22056;0.000;0.000;2023-03-02T08:07:53;5.05;;;1.00;;
35977;SDS011;22056;0.000;0.000;2023-03-02T08:10:19;5.00;;;0.93;;
35977;SDS011;22056;0.000;0.000;2023-03-02T08:12:45;1.48;;;0.75;;
35977;SDS011;22056;0.000;0.000;2023-03-02T08:15:11;1.65;;;0.60;;
35977;SDS011;22056;0.000;0.000;2023-03-02T08:17:37;2.45;;;0.95;;
35977;SDS011;22056;0.000;0.000;2023-03-02T08:20:04;2.63;;;0.85;;
35977;SDS011;22056;0.000;0.000;2023-03-02T08:22:31;2.53;;;0.73;;
35977;SDS011;22056;0.000;0.000;2023-03-02T08:24:57;2.97;;;0.90;;
35977;SDS011;22056;0.000;0.000;2023-03-02T08:27:23;3.35;;;0.82;;
35977;SDS011;22056;0.000;0.000;2023-03-02T08:29:49;3.95;;;0.85;;
35977;SDS011;22056;0.000;0.000;2023-03-02T08:32:18;3.92;;;0.90;;
35977;SDS011;22056;0.000;0.000;2023-03-02T08:34:44;5.50;;;1.00;;
35977;SDS011;22056;0.000;0.000;2023-03-02T08:37:15;2.50;;;0.70;;
35977;SDS011;22056;0.000;0.000;2023-03-02T08:39:41;2.35;;;0.90;;
35977;SDS011;22056;0.000;0.000;2023-03-02T08:42:07;3.55;;;0.80;;
35977;SDS011;22056;0.000;0.000;2023-03-02T08:44:33;2.47;;;0.82;;
35977;SDS011;22056;0.000;0.000;2023-03-02T08:47:00;2.95;;;0.70;;
35977;SDS011;22056;0.000;0.000;2023-03-02T08:49:26;2.03;;;0.90;;
35977;SDS011;22056;0.000;0.000;2023-03-02T08:51:52;4.15;;;0.80;;
35977;SDS011;22056;0.000;0.000;2023-03-02T08:54:20;2.38;;;0.73;;
35977;SDS011;22056;0.000;0.000;2023-03-02T08:56:47;2.70;;;0.88;;
35977;SDS011;22056;0.000;0.000;2023-03-02T08:59:15;1.35;;;0.82;;
35977;SDS011;22056;0.000;0.000;2023-03-02T09:01:42;0.90;;;0.70;;
35977;SDS011;22056;0.000;0.000;2023-03-02T09:04:09;4.03;;;1.00;;
35977;SDS011;22056;0.000;0.000;2023-03-02T09:06:36;1.85;;;1.00;;
35977;SDS011;22056;0.000;0.000;2023-03-02T09:09:03;3.97;;;1.00;;
35977;SDS011;22056;0.000;0.000;2023-03-02T09:11:30;1.10;;;0.63;;
35977;SDS011;22056;0.000;0.000;2023-03-02T09:13:56;4.78;;;0.70;;
35977;SDS011;22056;0.000;0.000;2023-03-02T09:16:23;2.47;;;1.10;;
35977;SDS011;22056;0.000;0.000;2023-03-02T09:18:50;2.80;;;0.90;;
35977;SDS011;22056;0.000;0.000;2023-03-02T09:21:16;3.42;;;0.70;;
35977;SDS011;22056;0.000;0.000;2023-03-02T09:23:43;3.22;;;0.80;;
35977;SDS011;22056;0.000;0.000;2023-03-02T09:26:09;1.15;;;0.80;;
35977;SDS011;22056;0.000;0.000;2023-03-02T09:28:35;4.53;;;0.98;;
35977;SDS011;22056;0.000;0.000;2023-03-02T09:31:03;4.88;;;0.88;;
35977;SDS011;22056;0.000;0.000;2023-03-02T09:33:29;3.20;;;0.95;;
35977;SDS011;22056;0.000;0.000;2023-03-02T09:35:55;5.95;;;0.90;;
35977;SDS011;22056;0.000;0.000;2023-03-02T09:38:22;2.50;;;0.90;;
35977;SDS011;22056;0.000;0.000;2023-03-02T09:43:26;2.85;;;1.15;;
35977;SDS011;22056;0.000;0.000;2023-03-02T09:56:21;4.55;;;0.80;;
35977;SDS011;22056;0.000;0.000;2023-03-02T09:58:53;4.78;;;1.00;;
35977;SDS011;22056;0.000;0.000;2023-03-02T10:01:27;1.98;;;0.95;;
35977;SDS011;22056;0.000;0.000;2023-03-02T10:03:56;6.30;;;1.00;;
35977;SDS011;22056;0.000;0.000;2023-03-02T10:06:24;1.65;;;0.80;;
35977;SDS011;22056;0.000;0.000;2023-03-02T10:08:50;1.85;;;0.73;;
35977;SDS011;22056;0.000;0.000;2023-03-02T10:11:21;1.00;;;0.55;;
35977;SDS011;22056;0.000;0.000;2023-03-02T10:14:34;3.85;;;0.80;;
35977;SDS011;22056;0.000;0.000;2023-03-02T10:16:43;3.33;;;0.80;;
35977;SDS011;22056;0.000;0.000;2023-03-02T10:19:17;1.60;;;0.88;;
35977;SDS011;22056;0.000;0.000;2023-03-02T10:21:50;2.45;;;0.90;;
35977;SDS011;22056;0.000;0.000;2023-03-02T10:26:54;3.92;;;0.80;;
35977;SDS011;22056;0.000;0.000;2023-03-02T10:31:59;1.27;;;0.60;;
35977;SDS011;22056;0.000;0.000;2023-03-02T10:34:28;2.47;;;0.68;;
35977;SDS011;22056;0.000;0.000;2023-03-02T10:36:55;2.45;;;0.70;;
35977;SDS011;22056;0.000;0.000;2023-03-02T10:39:21;3.03;;;1.00;;
35977;SDS011;22056;0.000;0.000;2023-03-02T10:44:36;1.48;;;0.80;;
35977;SDS011;22056;0.000;0.000;2023-03-02T10:47:03;2.45;;;0.80;;
35977;SDS011;22056;0.000;0.000;2023-03-02T10:49:34;2.80;;;0.60;;
35977;SDS011;22056;0.000;0.000;2023-03-02T10:52:13;2.03;;;0.80;;
35977;SDS011;22056;0.000;0.000;2023-03-02T10:54:39;1.50;;;0.70;;
35977;SDS011;22056;0.000;0.000;2023-03-02T10:59:51;0.80;;;0.60;;
35977;SDS011;22056;0.000;0.000;2023-03-02T11:02:21;2.47;;;0.88;;
35977;SDS011;22056;0.000;0.000;2023-03-02T11:04:52;2.45;;;0.70;;
35977;SDS011;22056;0.000;0.000;2023-03-02T11:07:19;1.88;;;0.80;;
35977;SDS011;22056;0.000;0.000;2023-03-02T11:09:56;3.38;;;0.90;;
35977;SDS011;22056;0.000;0.000;2023-03-02T11:12:22;2.95;;;1.00;;
35977;SDS011;22056;0.000;0.000;2023-03-02T11:14:59;1.80;;;0.80;;
35977;SDS011;22056;0.000;0.000;2023-03-02T11:17:28;1.67;;;1.05;;
35977;SDS011;22056;0.000;0.000;2023-03-02T11:19:55;1.98;;;0.90;;
35977;SDS011;22056;0.000;0.000;2023-03-02T11:22:37;4.88;;;0.93;;
35977;SDS011;22056;0.000;0.000;2023-03-02T11:25:07;4.22;;;1.05;;
35977;SDS011;22056;0.000;0.000;2023-03-02T11:27:38;3.40;;;0.80;;
35977;SDS011;22056;0.000;0.000;2023-03-02T11:35:07;1.70;;;0.90;;
35977;SDS011;22056;0.000;0.000;2023-03-02T11:37:42;1.48;;;0.80;;
35977;SDS011;22056;0.000;0.000;2023-03-02T11:40:24;4.22;;;1.00;;
35977;SDS011;22056;0.000;0.000;2023-03-02T11:42:53;4.18;;;0.77;;
35977;SDS011;22056;0.000;0.000;2023-03-02T11:45:25;2.60;;;0.82;;
35977;SDS011;22056;0.000;0.000;2023-03-02T11:47:54;5.03;;;0.77;;
35977;SDS011;22056;0.000;0.000;2023-03-02T11:50:21;1.40;;;0.70;;
35977;SDS011;22056;0.000;0.000;2023-03-02T11:52:49;2.15;;;0.85;;
35977;SDS011;22056;0.000;0.000;2023-03-02T11:55:21;2.38;;;0.73;;
35977;SDS011;22056;0.000;0.000;2023-03-02T11:57:51;1.27;;;0.60;;
35977;SDS011;22056;0.000;0.000;2023-03-02T12:00:37;1.17;;;0.60;;
35977;SDS011;22056;0.000;0.000;2023-03-02T12:03:05;6.07;;;0.77;;
35977;SDS011;22056;0.000;0.000;2023-03-02T12:05:33;1.65;;;0.80;;
35977;SDS011;22056;0.000;0.000;2023-03-02T12:10:39;2.95;;;1.00;;
35977;SDS011;22056;0.000;0.000;2023-03-02T12:13:09;3.75;;;0.80;;
35977;SDS011;22056;0.000;0.000;2023-03-02T12:15:38;1.80;;;0.73;;
35977;SDS011;22056;0.000;0.000;2023-03-02T12:20:59;2.65;;;0.60;;
35977;SDS011;22056;0.000;0.000;2023-03-02T12:23:26;1.40;;;0.82;;
35977;SDS011;22056;0.000;0.000;2023-03-02T12:26:37;2.85;;;0.77;;
35977;SDS011;22056;0.000;0.000;2023-03-02T12:28:38;3.72;;;0.73;;
35977;SDS011;22056;0.000;0.000;2023-03-02T12:31:09;1.83;;;0.73;;
35977;SDS011;22056;0.000;0.000;2023-03-02T12:33:46;3.00;;;0.80;;
35977;SDS011;22056;0.000;0.000;2023-03-02T12:36:14;2.97;;;0.68;;
35977;SDS011;22056;0.000;0.000;2023-03-02T12:38:41;3.97;;;0.60;;
35977;SDS011;22056;0.000;0.000;2023-03-02T12:46:28;1.45;;;0.77;;
35977;SDS011;22056;0.000;0.000;2023-03-02T12:51:52;1.23;;;0.75;;
35977;SDS011;22056;0.000;0.000;2023-03-02T12:54:20;2.00;;;0.80;;
35977;SDS011;22056;0.000;0.000;2023-03-02T12:56:47;3.60;;;0.90;;
35977;SDS011;22056;0.000;0.000;2023-03-02T12:59:21;1.52;;;0.90;;
35977;SDS011;22056;0.000;0.000;2023-03-02T13:01:47;2.40;;;0.95;;
35977;SDS011;22056;0.000;0.000;2023-03-02T13:04:24;4.25;;;0.90;;
35977;SDS011;22056;0.000;0.000;2023-03-02T13:06:51;4.13;;;1.00;;
35977;SDS011;22056;0.000;0.000;2023-03-02T13:09:17;2.03;;;0.70;;
35977;SDS011;22056;0.000;0.000;2023-03-02T13:11:44;1.70;;;0.73;;
35977;SDS011;22056;0.000;0.000;2023-03-02T13:14:19;2.97;;;0.82;;
35977;SDS011;22056;0.000;0.000;2023-03-02T13:16:58;1.92;;;0.75;;
35977;SDS011;22056;0.000;0.000;2023-03-02T13:19:28;5.63;;;1.00;;
35977;SDS011;22056;0.000;0.000;2023-03-02T13:21:56;3.45;;;1.00;;
35977;SDS011;22056;0.000;0.000;2023-03-02T13:27:21;1.90;;;0.82;;
35977;SDS011;22056;0.000;0.000;2023-03-02T13:29:48;2.95;;;0.77;;
35977;SDS011;22056;0.000;0.000;2023-03-02T13:32:16;1.42;;;0.88;;
35977;SDS011;22056;0.000;0.000;2023-03-02T13:34:44;2.67;;;0.60;;
35977;SDS011;22056;0.000;0.000;2023-03-02T13:40:00;2.65;;;0.80;;
35977;SDS011;22056;0.000;0.000;2023-03-02T13:42:36;2.80;;;0.77;;
35977;SDS011;22056;0.000;0.000;2023-03-02T13:45:23;3.67;;;1.02;;
35977;SDS011;22056;0.000;0.000;2023-03-02T13:47:49;1.95;;;0.80;;
35977;SDS011;22056;0.000;0.000;2023-03-02T13:50:20;4.20;;;1.00;;
35977;SDS011;22056;0.000;0.000;2023-03-02T13:52:47;18.35;;;2.05;;
35977;SDS011;22056;0.000;0.000;2023-03-02T13:55:14;8.65;;;1.45;;
35977;SDS011;22056;0.000;0.000;2023-03-02T13:57:41;8.57;;;1.40;;
35977;SDS011;22056;0.000;0.000;2023-03-02T14:00:13;11.23;;;1.80;;
35977;SDS011;22056;0.000;0.000;2023-03-02T14:02:39;7.80;;;1.23;;
35977;SDS011;22056;0.000;0.000;2023-03-02T14:05:19;6.43;;;1.00;;
35977;SDS011;22056;0.000;0.000;2023-03-02T14:07:47;2.95;;;1.00;;
35977;SDS011;22056;0.000;0.000;2023-03-02T14:10:14;2.38;;;1.00;;
35977;SDS011;22056;0.000;0.000;2023-03-02T14:12:42;1.80;;;0.70;;
35977;SDS011;22056;0.000;0.000;2023-03-02T14:15:12;2.20;;;0.85;;
35977;SDS011;22056;0.000;0.000;2023-03-02T14:17:39;2.85;;;0.95;;
35977;SDS011;22056;0.000;0.000;2023-03-02T14:20:09;2.85;;;1.00;;
35977;SDS011;22056;0.000;0.000;2023-03-02T14:22:36;1.50;;;0.50;;
35977;SDS011;22056;0.000;0.000;2023-03-02T14:25:02;4.40;;;1.00;;
35977;SDS011;22056;0.000;0.000;2023-03-02T14:27:28;2.92;;;1.10;;
35977;SDS011;22056;0.000;0.000;2023-03-02T14:29:55;1.20;;;0.63;;
35977;SDS011;22056;0.000;0.000;2023-03-02T14:32:21;0.93;;;0.63;;
35977;SDS011;22056;0.000;0.000;2023-03-02T14:34:47;4.07;;;1.05;;
35977;SDS011;22056;0.000;0.000;2023-03-02T14:37:14;5.47;;;0.98;;
35977;SDS011;22056;0.000;0.000;2023-03-02T14:39:44;2.03;;;1.00;;
35977;SDS011;22056;0.000;0.000;2023-03-02T14:42:12;3.83;;;1.20;;
35977;SDS011;22056;0.000;0.000;2023-03-02T14:44:39;4.43;;;1.05;;
35977;SDS011;22056;0.000;0.000;2023-03-02T14:47:05;2.63;;;1.02;;
35977;SDS011;22056;0.000;0.000;2023-03-02T14:49:31;1.98;;;0.90;;
35977;SDS011;22056;0.000;0.000;2023-03-02T14:51:59;1.23;;;0.60;;
35977;SDS011;22056;0.000;0.000;2023-03-02T14:54:26;2.10;;;1.10;;
35977;SDS011;22056;0.000;0.000;2023-03-02T14:56:55;2.85;;;0.80;;
35977;SDS011;22056;0.000;0.000;2023-03-02T14:59:21;2.08;;;0.80;;
35977;SDS011;22056;0.000;0.000;2023-03-02T15:01:47;2.92;;;0.80;;
35977;SDS011;22056;0.000;0.000;2023-03-02T15:04:13;1.80;;;0.70;;
35977;SDS011;22056;0.000;0.000;2023-03-02T15:06:40;2.42;;;1.02;;
35977;SDS011;22056;0.000;0.000;2023-03-02T15:09:09;4.43;;;0.93;;
35977;SDS011;22056;0.000;0.000;2023-03-02T15:11:36;5.15;;;1.25;;
35977;SDS011;22056;0.000;0.000;2023-03-02T15:14:02;1.65;;;0.88;;
35977;SDS011;22056;0.000;0.000;2023-03-02T15:16:28;3.58;;;1.08;;
35977;SDS011;22056;0.000;0.000;2023-03-02T15:18:54;5.05;;;1.10;;
35977;SDS011;22056;0.000;0.000;2023-03-02T15:21:21;6.63;;;1.30;;
35977;SDS011;22056;0.000;0.000;2023-03-02T15:23:48;4.43;;;0.90;;
35977;SDS011;22056;0.000;0.000;2023-03-02T15:26:15;3.63;;;1.00;;
35977;SDS011;22056;0.000;0.000;2023-03-02T15:28:41;5.05;;;0.90;;
35977;SDS011;22056;0.000;0.000;2023-03-02T15:31:10;1.58;;;0.90;;
35977;SDS011;22056;0.000;0.000;2023-03-02T15:33:38;2.97;;;0.95;;
35977;SDS011;22056;0.000;0.000;2023-03-02T15:36:05;1.60;;;0.55;;
35977;SDS011;22056;0.000;0.000;2023-03-02T15:38:31;2.15;;;1.00;;
35977;SDS011;22056;0.000;0.000;2023-03-02T15:41:01;2.20;;;0.85;;
35977;SDS011;22056;0.000;0.000;2023-03-02T15:43:28;1.52;;;0.70;;
35977;SDS011;22056;0.000;0.000;2023-03-02T15:45:54;2.05;;;0.75;;
35977;SDS011;22056;0.000;0.000;2023-03-02T15:48:20;2.53;;;0.70;;
35977;SDS011;22056;0.000;0.000;2023-03-02T15:50:57;2.28;;;1.00;;
35977;SDS011;22056;0.000;0.000;2023-03-02T15:53:24;1.58;;;0.60;;
35977;SDS011;22056;0.000;0.000;2023-03-02T15:55:50;3.45;;;1.00;;
35977;SDS011;22056;0.000;0.000;2023-03-02T15:58:16;1.85;;;0.65;;
35977;SDS011;22056;0.000;0.000;2023-03-02T16:00:43;2.00;;;0.85;;
35977;SDS011;22056;0.000;0.000;2023-03-02T16:03:09;2.30;;;0.80;;